createdAt,value
2022-11-21T00:01:38.459Z,98456.50
2022-11-21T00:04:07.652Z,98464.75
2022-11-21T00:06:37.051Z,98318.59
2022-11-21T00:09:05.082Z,98223.97
2022-11-21T00:11:33.094Z,98402.25
2022-11-21T00:14:01.027Z,98153.09
2022-11-21T00:16:29.234Z,98440.88
2022-11-21T00:18:57.244Z,98512.69
2022-11-21T00:21:25.200Z,98370.28
2022-11-21T00:23:54.725Z,98405.63
2022-11-21T00:26:22.677Z,98627.06
2022-11-21T00:28:50.678Z,98538.22
2022-11-21T00:31:21.687Z,98706.94
2022-11-21T00:33:49.663Z,98660.81
2022-11-21T00:36:17.660Z,98683.47
2022-11-21T00:38:45.779Z,98534.13
2022-11-21T00:41:15.196Z,98390.47
2022-11-21T00:43:43.206Z,98580.44
2022-11-21T00:46:12.719Z,98844.41
2022-11-21T00:48:40.658Z,98727.91
2022-11-21T00:51:08.537Z,98469.44
2022-11-21T00:53:36.418Z,98522.13
2022-11-21T00:56:04.325Z,98633.78
2022-11-21T00:58:33.816Z,98690.16
2022-11-21T01:01:06.404Z,98568.91
2022-11-21T01:03:35.168Z,98374.97
2022-11-21T01:06:04.071Z,98405.13
2022-11-21T01:08:36.004Z,98608.72
2022-11-21T01:11:05.354Z,98378.56
2022-11-21T01:13:34.879Z,98573.09
2022-11-21T01:16:06.627Z,98530.75
2022-11-21T01:18:34.675Z,98722.19
2022-11-21T01:21:02.937Z,98495.50
2022-11-21T01:23:30.767Z,98580.97
2022-11-21T01:26:02.700Z,98653.59
2022-11-21T01:28:30.796Z,98377.75
2022-11-21T01:31:06.183Z,98717.72
2022-11-21T01:33:34.497Z,98480.44
2022-11-21T01:36:08.688Z,98745.53
2022-11-21T01:38:36.669Z,98241.69
2022-11-21T01:41:04.779Z,98702.13
2022-11-21T01:43:32.808Z,98574.28
2022-11-21T01:46:01.246Z,98511.53
2022-11-21T01:48:33.744Z,98145.28
2022-11-21T01:51:04.351Z,98325.09
2022-11-21T01:53:32.423Z,98700.44
2022-11-21T01:56:00.536Z,98348.38
2022-11-21T01:58:28.672Z,98736.09
2022-11-21T02:00:56.680Z,98724.09
2022-11-21T02:03:26.079Z,98694.34
2022-11-21T02:05:57.449Z,98434.16
2022-11-21T02:08:25.517Z,98703.88
2022-11-21T02:10:58.247Z,98511.59
2022-11-21T02:13:26.581Z,98745.69
2022-11-21T02:15:54.601Z,98416.06
2022-11-21T02:18:25.539Z,98425.09
2022-11-21T02:21:00.174Z,98345.16
2022-11-21T02:23:30.435Z,98850.03
2022-11-21T02:25:59.905Z,98603.31
2022-11-21T02:28:27.987Z,98670.25
2022-11-21T02:30:56.036Z,98664.97
2022-11-21T02:33:24.332Z,98714.00
2022-11-21T02:36:01.653Z,98414.56
2022-11-21T02:38:31.934Z,98629.53
2022-11-21T02:41:04.954Z,98183.22
2022-11-21T02:43:34.406Z,98310.72
2022-11-21T02:46:02.248Z,98505.75
2022-11-21T02:48:30.222Z,98593.94
2022-11-21T02:50:58.122Z,98740.63
2022-11-21T02:53:26.131Z,98504.44
2022-11-21T02:55:54.043Z,98399.66
2022-11-21T02:58:23.803Z,98235.09
2022-11-21T03:00:51.850Z,98541.50
2022-11-21T03:03:20.036Z,98536.31
2022-11-21T03:05:48.349Z,98362.75
2022-11-21T03:08:16.315Z,98627.19
2022-11-21T03:10:46.078Z,98612.50
2022-11-21T03:13:14.142Z,98723.44
2022-11-21T03:15:43.517Z,98587.22
2022-11-21T03:18:13.412Z,98741.59
2022-11-21T03:20:41.438Z,98563.16
2022-11-21T03:23:09.383Z,98647.97
2022-11-21T03:25:37.258Z,98712.19
2022-11-21T03:28:05.464Z,98385.88
2022-11-21T03:30:33.508Z,98716.31
2022-11-21T03:33:02.854Z,98382.75
2022-11-21T03:35:30.779Z,98818.00
2022-11-21T03:37:58.678Z,98436.63
2022-11-21T03:40:26.575Z,98251.97
2022-11-21T03:42:54.534Z,98594.97
2022-11-21T03:45:22.494Z,98754.63
2022-11-21T03:47:50.415Z,98653.44
2022-11-21T03:50:21.060Z,98451.94
2022-11-21T03:52:48.987Z,98395.47
2022-11-21T03:55:16.977Z,98348.41
2022-11-21T03:57:44.952Z,98682.19
2022-11-21T04:00:14.425Z,98645.25
2022-11-21T04:02:42.453Z,98659.06
2022-11-21T04:05:10.782Z,98465.44
2022-11-21T04:07:42.403Z,98879.91
2022-11-21T04:10:11.295Z,98466.84
2022-11-21T04:12:39.397Z,98791.28
2022-11-21T04:15:13.152Z,98742.94
2022-11-21T04:17:41.659Z,98736.63
2022-11-21T04:20:10.623Z,98767.88
2022-11-21T04:22:40.006Z,98802.66
2022-11-21T04:25:09.105Z,98706.81
2022-11-21T04:27:36.970Z,98692.44
2022-11-21T04:30:05.597Z,98330.56
2022-11-21T04:32:33.625Z,98642.44
2022-11-21T04:35:01.616Z,98568.84
2022-11-21T04:37:32.240Z,98864.41
2022-11-21T04:40:01.865Z,98865.31
2022-11-21T04:42:29.736Z,98472.34
2022-11-21T04:44:57.768Z,98509.72
2022-11-21T04:47:25.800Z,98741.44
2022-11-21T04:49:56.723Z,98721.88
2022-11-21T04:52:25.075Z,98433.09
2022-11-21T04:54:53.183Z,98635.47
2022-11-21T04:57:26.116Z,98393.16
2022-11-21T04:59:54.098Z,98820.91
2022-11-21T05:02:22.324Z,98721.25
2022-11-21T05:04:50.479Z,98514.66
2022-11-21T05:07:18.712Z,98526.31
2022-11-21T05:09:46.910Z,98674.63
2022-11-21T05:12:32.384Z,98198.63
2022-11-21T05:15:01.775Z,98397.41
2022-11-21T05:17:30.099Z,98375.88
2022-11-21T05:19:58.086Z,98469.81
2022-11-21T05:22:27.946Z,98306.59
2022-11-21T05:24:55.792Z,98389.78
2022-11-21T05:27:23.657Z,98715.44
2022-11-21T05:29:51.360Z,98515.50
2022-11-21T05:32:20.555Z,98321.28
2022-11-21T05:34:48.494Z,98442.59
2022-11-21T05:37:16.435Z,98496.78
2022-11-21T05:39:44.279Z,98449.88
2022-11-21T05:42:12.102Z,98672.78
2022-11-21T05:44:44.702Z,98555.34
2022-11-21T05:47:13.090Z,98394.50
2022-11-21T05:49:42.425Z,98407.09
2022-11-21T05:52:10.489Z,98466.44
2022-11-21T05:54:42.385Z,98780.91
2022-11-21T05:57:15.207Z,98517.63
2022-11-21T05:59:49.177Z,98595.22
2022-11-21T06:02:34.610Z,98627.25
2022-11-21T06:05:05.312Z,98424.81
2022-11-21T06:07:34.566Z,98575.66
2022-11-21T06:10:02.581Z,98514.53
2022-11-21T06:12:30.552Z,98441.91
2022-11-21T06:15:01.598Z,98479.16
2022-11-21T06:17:29.640Z,98618.13
2022-11-21T06:19:57.518Z,98634.38
2022-11-21T06:22:26.825Z,98693.03
2022-11-21T06:24:54.615Z,98586.56
2022-11-21T06:27:22.426Z,98542.63
2022-11-21T06:29:50.360Z,98549.25
2022-11-21T06:32:18.264Z,98675.69
2022-11-21T06:34:46.069Z,98523.28
2022-11-21T06:37:14.074Z,98400.75
2022-11-21T06:39:43.171Z,98394.16
2022-11-21T06:42:10.947Z,98492.69
2022-11-21T06:44:38.682Z,98432.44
2022-11-21T06:47:19.639Z,98432.16
2022-11-21T06:49:47.420Z,98732.03
2022-11-21T06:52:15.264Z,98452.56
2022-11-21T06:54:44.652Z,98658.78
2022-11-21T06:57:12.393Z,98544.25
2022-11-21T06:59:40.170Z,98591.22
2022-11-21T07:02:07.971Z,98360.09
2022-11-21T07:04:35.615Z,98700.72
2022-11-21T07:07:03.383Z,98539.34
2022-11-21T07:09:45.791Z,98472.09
2022-11-21T07:12:32.823Z,98521.41
2022-11-21T07:15:00.652Z,98649.97
2022-11-21T07:17:28.532Z,98685.84
2022-11-21T07:19:56.265Z,98656.72
2022-11-21T07:22:23.979Z,98387.53
2022-11-21T07:24:51.669Z,98689.34
2022-11-21T07:27:20.814Z,98472.78
2022-11-21T07:29:48.591Z,98687.94
2022-11-21T07:32:16.384Z,98526.19
2022-11-21T07:34:44.093Z,98672.06
2022-11-21T07:37:11.902Z,98447.84
2022-11-21T07:39:39.711Z,98517.97
2022-11-21T07:42:07.411Z,98462.00
2022-11-21T07:44:36.753Z,98538.94
2022-11-21T07:47:04.467Z,98267.91
2022-11-21T07:49:32.356Z,98535.28
2022-11-21T07:52:00.215Z,98609.75
2022-11-21T07:54:28.028Z,98562.72
2022-11-21T07:56:55.851Z,98376.53
2022-11-21T07:59:23.541Z,98486.00
2022-11-21T08:01:53.440Z,98606.38
2022-11-21T08:04:21.223Z,98529.69
2022-11-21T08:06:48.990Z,98535.88
2022-11-21T08:09:16.776Z,98401.59
2022-11-21T08:11:44.527Z,98527.47
2022-11-21T08:14:12.311Z,98650.53
2022-11-21T08:16:40.303Z,98346.97
2022-11-21T08:19:09.496Z,98523.47
2022-11-21T08:21:37.259Z,98426.75
2022-11-21T08:24:07.662Z,98342.38
2022-11-21T08:26:35.398Z,98483.31
2022-11-21T08:29:03.196Z,98356.63
2022-11-21T08:31:31.039Z,98587.09
2022-11-21T08:33:58.976Z,98434.72
2022-11-21T08:36:28.152Z,98490.44
2022-11-21T08:38:55.907Z,98620.97
2022-11-21T08:41:52.736Z,98460.13
2022-11-21T08:44:20.478Z,98581.75
2022-11-21T08:46:48.222Z,98490.19
2022-11-21T08:49:16.192Z,98531.44
2022-11-21T08:51:45.339Z,98749.66
2022-11-21T08:54:13.366Z,98348.53
2022-11-21T08:56:41.027Z,98472.53
2022-11-21T08:59:08.804Z,98617.50
2022-11-21T09:01:36.630Z,98458.34
2022-11-21T09:04:04.520Z,98638.94
2022-11-21T09:06:32.333Z,98603.63
2022-11-21T09:09:01.425Z,98656.09
2022-11-21T09:11:29.089Z,98481.56
2022-11-21T09:14:14.539Z,98495.09
2022-11-21T09:17:02.214Z,98569.44
2022-11-21T09:19:30.534Z,98540.94
2022-11-21T09:21:58.430Z,98574.56
2022-11-21T09:24:27.582Z,98633.41
2022-11-21T09:26:55.340Z,98616.59
2022-11-21T09:29:23.136Z,98527.19
2022-11-21T09:31:50.833Z,98617.59
2022-11-21T09:34:18.556Z,98656.66
2022-11-21T09:36:46.979Z,98636.25
2022-11-21T09:39:14.747Z,98409.91
2022-11-21T09:41:53.871Z,98536.00
2022-11-21T09:44:36.069Z,98564.91
2022-11-21T09:47:05.376Z,98390.19
2022-11-21T09:49:33.584Z,98466.56
2022-11-21T09:52:01.521Z,98434.91
2022-11-21T09:54:31.572Z,98485.97
2022-11-21T09:57:00.893Z,98156.69
2022-11-21T09:59:33.489Z,98581.56
2022-11-21T10:02:01.234Z,98614.78
2022-11-21T10:04:29.376Z,98417.06
2022-11-21T10:07:02.788Z,98432.13
2022-11-21T10:09:37.523Z,98444.75
2022-11-21T10:12:26.188Z,98529.03
2022-11-21T10:14:59.987Z,98428.19
2022-11-21T10:17:31.304Z,98510.28
2022-11-21T10:20:19.289Z,98524.19
2022-11-21T10:23:00.833Z,98618.84
2022-11-21T10:25:30.703Z,98595.06
2022-11-21T10:28:01.647Z,98427.44
2022-11-21T10:30:29.738Z,98545.03
2022-11-21T10:32:58.374Z,98516.38
2022-11-21T10:35:27.014Z,98432.41
2022-11-21T10:37:55.325Z,98406.66
2022-11-21T10:40:29.487Z,98468.09
2022-11-21T10:43:00.041Z,98504.91
2022-11-21T10:45:26.805Z,98559.59
2022-11-21T10:47:55.194Z,98504.59
2022-11-21T10:50:44.035Z,98319.84
2022-11-21T10:53:35.071Z,98269.47
2022-11-21T10:56:03.938Z,98322.34
2022-11-21T10:58:42.428Z,98544.13
2022-11-21T11:01:20.852Z,98318.88
2022-11-21T11:04:06.990Z,98474.63
2022-11-21T11:06:36.501Z,98423.78
2022-11-21T11:09:04.447Z,98516.06
2022-11-21T11:11:32.174Z,98290.50
2022-11-21T11:14:02.501Z,98518.41
2022-11-21T11:16:30.492Z,98483.25
2022-11-21T11:19:00.354Z,98458.22
2022-11-21T11:21:29.093Z,98376.88
2022-11-21T11:24:07.842Z,98508.06
2022-11-21T11:26:35.558Z,98139.03
2022-11-21T11:29:11.133Z,98392.28
2022-11-21T11:31:43.104Z,98349.91
2022-11-21T11:34:13.404Z,98397.13
2022-11-21T11:36:47.166Z,98317.88
2022-11-21T11:39:19.627Z,98439.88
2022-11-21T11:42:17.184Z,98310.41
2022-11-21T11:45:08.383Z,98235.28
2022-11-21T11:47:39.305Z,98309.34
2022-11-21T11:50:13.337Z,98115.41
2022-11-21T11:52:51.293Z,98436.88
2022-11-21T11:55:21.869Z,98188.72
2022-11-21T11:57:50.789Z,98387.97
2022-11-21T12:00:28.372Z,98178.16
2022-11-21T12:03:02.363Z,98184.13
2022-11-21T12:05:31.053Z,98271.44
2022-11-21T12:08:40.183Z,98309.19
2022-11-21T12:11:13.819Z,98223.16
2022-11-21T12:13:41.553Z,98322.28
2022-11-21T12:16:14.154Z,98152.00
2022-11-21T12:18:47.880Z,98303.63
2022-11-21T12:21:16.466Z,98264.56
2022-11-21T12:23:49.981Z,98039.47
2022-11-21T12:26:26.088Z,98270.31
2022-11-21T12:29:01.384Z,98292.94
2022-11-21T12:31:35.233Z,98256.19
2022-11-21T12:34:05.522Z,98319.00
2022-11-21T12:36:36.213Z,98169.34
2022-11-21T12:39:15.162Z,98245.75
2022-11-21T12:42:16.670Z,98295.44
2022-11-21T12:44:53.699Z,98367.88
2022-11-21T12:47:32.030Z,98309.16
2022-11-21T12:50:22.626Z,98322.44
2022-11-21T12:53:09.111Z,98263.00
2022-11-21T12:55:38.007Z,98361.53
2022-11-21T12:58:26.206Z,98073.81
2022-11-21T13:01:04.401Z,98264.84
2022-11-21T13:03:48.037Z,98093.69
2022-11-21T13:06:17.934Z,98387.47
2022-11-21T13:08:45.906Z,98342.53
2022-11-21T13:11:36.264Z,98427.81
2022-11-21T13:14:06.104Z,98340.00
2022-11-21T13:19:39.090Z,98264.84
2022-11-21T13:22:06.754Z,98303.50
2022-11-21T13:24:57.317Z,98300.06
2022-11-21T13:27:38.173Z,98310.13
2022-11-21T13:30:25.434Z,98244.66
2022-11-21T13:32:53.332Z,98297.66
2022-11-21T13:36:00.434Z,98301.34
2022-11-21T13:38:29.528Z,98198.69
2022-11-21T13:41:15.011Z,98279.91
2022-11-21T13:43:42.782Z,98209.06
2022-11-21T13:46:10.586Z,98222.16
2022-11-21T13:48:56.166Z,98271.03
2022-11-21T13:51:53.336Z,98222.63
2022-11-21T13:54:51.617Z,98248.84
2022-11-21T13:57:26.863Z,98187.06
2022-11-21T14:00:19.540Z,98189.72
2022-11-21T14:03:07.145Z,98186.47
2022-11-21T14:05:54.417Z,98230.84
2022-11-21T14:08:23.100Z,98223.91
2022-11-21T14:10:52.954Z,98220.50
2022-11-21T14:13:27.903Z,98208.25
2022-11-21T14:16:05.090Z,98126.91
2022-11-21T14:18:32.922Z,98203.78
2022-11-21T14:21:01.258Z,98188.16
2022-11-21T14:23:29.962Z,98184.78
2022-11-21T14:26:01.074Z,98153.13
2022-11-21T14:28:29.712Z,98106.41
2022-11-21T14:30:58.217Z,98214.06
2022-11-21T14:33:29.910Z,98171.63
2022-11-21T14:36:00.513Z,98128.94
2022-11-21T14:38:28.615Z,98019.94
2022-11-21T14:41:27.990Z,98163.34
2022-11-21T14:44:18.861Z,98158.31
2022-11-21T14:46:47.378Z,98126.03
2022-11-21T14:49:29.300Z,98130.19
2022-11-21T14:52:19.475Z,98008.69
2022-11-21T14:55:13.517Z,98140.03
2022-11-21T14:57:40.037Z,98082.25
2022-11-21T15:00:09.887Z,98120.13
2022-11-21T15:02:37.606Z,98131.41
2022-11-21T15:05:06.541Z,98101.63
2022-11-21T15:07:36.991Z,98123.03
2022-11-21T15:12:56.929Z,98119.00
2022-11-21T15:15:29.892Z,98082.50
2022-11-21T15:18:24.311Z,98103.56
2022-11-21T15:20:47.547Z,98069.22
2022-11-21T15:23:29.327Z,98076.00
2022-11-21T15:28:55.188Z,98058.97
2022-11-21T15:31:26.262Z,98080.00
2022-11-21T15:34:27.311Z,98014.53
2022-11-21T15:36:47.090Z,98004.94
2022-11-21T15:39:18.366Z,98022.25
2022-11-21T15:41:49.297Z,97949.63
2022-11-21T15:44:25.996Z,98024.97
2022-11-21T15:46:53.908Z,98030.19
2022-11-21T15:49:37.156Z,98027.63
2022-11-21T15:52:10.382Z,98014.72
2022-11-21T15:54:38.293Z,98019.19
2022-11-21T15:57:06.098Z,97948.47
2022-11-21T15:57:15.563Z,98036.72
2022-11-21T15:59:35.215Z,98018.56
2022-11-21T16:02:04.179Z,97998.75
2022-11-21T16:04:36.273Z,98009.03
2022-11-21T16:07:04.009Z,98006.47
2022-11-21T16:09:31.891Z,97926.19
2022-11-21T16:12:00.741Z,97961.75
2022-11-21T16:14:28.384Z,97953.81
2022-11-21T16:16:57.630Z,97972.19
2022-11-21T16:19:26.025Z,97965.13
2022-11-21T16:21:54.179Z,97740.38
2022-11-21T16:24:22.058Z,97720.19
2022-11-21T16:26:53.516Z,97910.41
2022-11-21T16:29:21.473Z,97908.31
2022-11-21T16:31:50.824Z,97906.06
2022-11-21T16:34:22.961Z,97956.41
2022-11-21T16:36:50.888Z,97927.44
2022-11-21T16:39:18.860Z,97687.38
2022-11-21T16:41:48.035Z,97868.81
2022-11-21T16:44:16.689Z,97829.09
2022-11-21T16:46:47.017Z,97900.88
2022-11-21T16:49:15.187Z,97844.53
2022-11-21T16:51:44.572Z,97769.34
2022-11-21T16:54:13.134Z,97841.19
2022-11-21T16:56:41.226Z,97654.63
2022-11-21T16:59:09.147Z,97748.31
2022-11-21T17:01:37.632Z,97963.81
2022-11-21T17:04:05.831Z,97864.06
2022-11-21T17:06:33.999Z,97645.25
2022-11-21T17:09:03.757Z,97807.50
2022-11-21T17:11:32.214Z,97844.38
2022-11-21T17:14:00.959Z,97739.53
2022-11-21T17:16:29.234Z,97826.56
2022-11-21T17:18:57.390Z,97683.94
2022-11-21T17:21:25.317Z,97841.88
2022-11-21T17:23:53.083Z,97621.72
2022-11-21T17:26:23.107Z,97779.69
2022-11-21T17:28:54.467Z,97984.44
2022-11-21T17:31:22.482Z,97789.84
2022-11-21T17:33:51.841Z,97822.09
2022-11-21T17:36:20.546Z,97823.28
2022-11-21T17:38:48.879Z,97877.31
2022-11-21T17:41:17.813Z,97794.00
2022-11-21T17:43:47.410Z,97836.19
2022-11-21T17:46:16.827Z,97836.81
2022-11-21T17:48:54.585Z,97716.69
2022-11-21T17:51:25.860Z,97850.84
2022-11-21T17:53:53.938Z,97600.34
2022-11-21T17:56:23.853Z,97770.88
2022-11-21T17:58:53.439Z,97864.44
2022-11-21T18:01:22.140Z,97830.53
2022-11-21T18:03:54.327Z,97734.38
2022-11-21T18:06:22.209Z,97741.50
2022-11-21T18:08:50.136Z,97860.25
2022-11-21T18:11:19.496Z,97699.66
2022-11-21T18:13:54.863Z,97907.41
2022-11-21T18:16:25.932Z,97807.81
2022-11-21T18:18:53.783Z,97828.91
2022-11-21T18:59:12.511Z,97624.56
2022-11-21T19:01:40.955Z,97629.34
2022-11-21T19:04:09.436Z,97610.56
2022-11-21T19:06:37.868Z,97720.59
2022-11-21T19:09:07.101Z,97267.06
2022-11-21T19:11:35.554Z,97717.25
2022-11-21T19:14:13.414Z,97698.16
2022-11-21T19:16:42.105Z,97638.06
2022-11-21T19:19:33.614Z,97557.78
2022-11-21T19:22:01.306Z,97502.25
2022-11-21T19:24:29.770Z,97663.25
2022-11-21T19:26:58.297Z,97649.66
2022-11-21T19:29:28.703Z,97774.00
2022-11-21T19:31:57.325Z,97525.59
2022-11-21T19:34:25.646Z,97472.22
2022-11-21T19:36:54.073Z,97756.56
2022-11-21T19:39:22.324Z,97807.81
2022-11-21T19:41:50.273Z,97550.00
2022-11-21T19:44:18.707Z,97670.34
2022-11-21T19:46:51.403Z,97757.72
2022-11-21T19:49:20.275Z,97424.00
2022-11-21T19:51:48.485Z,97551.00
2022-11-21T19:54:17.411Z,97528.78
2022-11-21T19:56:45.461Z,97642.19
2022-11-21T19:59:14.694Z,97582.56
2022-11-21T20:01:44.866Z,97488.88
2022-11-21T20:04:17.700Z,97213.94
2022-11-21T20:06:46.409Z,97567.88
2022-11-21T20:09:15.720Z,97733.56
2022-11-21T20:11:44.670Z,97579.13
2022-11-21T20:14:19.583Z,97282.47
2022-11-21T20:16:50.088Z,97747.41
2022-11-21T20:19:20.224Z,97449.25
2022-11-21T20:21:48.237Z,97385.88
2022-11-21T20:24:16.277Z,97525.25
2022-11-21T20:26:44.165Z,97316.69
2022-11-21T20:29:12.598Z,97538.69
2022-11-21T20:31:40.570Z,97384.97
2022-11-21T20:34:11.256Z,97733.84
2022-11-21T20:36:40.818Z,97361.06
2022-11-21T20:39:09.745Z,97825.25
2022-11-21T20:41:37.857Z,97378.84
2022-11-21T20:45:11.348Z,97619.41
2022-11-21T20:46:56.012Z,97457.53
2022-11-21T20:49:23.925Z,97580.28
2022-11-21T20:54:42.126Z,97662.25
2022-11-21T20:57:14.829Z,97429.25
2022-11-21T20:59:43.719Z,97569.50
2022-11-21T21:02:14.172Z,97569.91
2022-11-21T21:04:43.496Z,97556.06
2022-11-21T21:07:12.999Z,97565.88
2022-11-21T21:09:40.966Z,97614.13
2022-11-21T21:12:09.023Z,97658.91
2022-11-21T21:14:37.151Z,97625.19
2022-11-21T21:17:05.051Z,97676.09
2022-11-21T21:19:33.171Z,97076.19
2022-11-21T21:22:01.091Z,97416.41
2022-11-21T21:24:30.305Z,97367.94
2022-11-21T21:26:58.977Z,97334.09
2022-11-21T21:29:27.032Z,97434.09
2022-11-21T21:31:55.119Z,97540.91
2022-11-21T21:34:23.315Z,97362.09
2022-11-21T21:36:51.694Z,97401.47
2022-11-21T21:39:19.742Z,97663.38
2022-11-21T21:41:49.067Z,97466.25
2022-11-21T21:44:17.232Z,97399.53
2022-11-21T21:46:45.128Z,97383.84
2022-11-21T21:49:13.437Z,97311.03
2022-11-21T21:51:41.339Z,97521.59
2022-11-21T21:54:16.302Z,97622.94
2022-11-21T21:56:44.266Z,97385.13
2022-11-21T21:59:13.603Z,97549.59
2022-11-21T22:01:42.632Z,97540.91
2022-11-21T22:04:11.564Z,97579.19
2022-11-21T22:06:39.642Z,97599.25
2022-11-21T22:09:08.177Z,97671.56
2022-11-21T22:11:37.749Z,97488.00
2022-11-21T22:14:09.763Z,97575.66
2022-11-21T22:16:39.567Z,97467.50
2022-11-21T22:19:07.593Z,97471.19
2022-11-21T22:21:36.646Z,97334.81
2022-11-21T22:26:55.132Z,97338.75
2022-11-21T22:29:23.259Z,97641.03
2022-11-21T22:31:52.616Z,97571.53
2022-11-21T22:34:20.396Z,97537.22
2022-11-21T22:36:48.416Z,97633.53
2022-11-21T22:39:17.323Z,97621.63
2022-11-21T22:41:45.113Z,97371.59
2022-11-21T22:44:13.503Z,97526.66
2022-11-21T22:46:41.239Z,97456.78
2022-11-21T22:49:10.351Z,97599.34
2022-11-21T22:51:38.163Z,97422.13
2022-11-21T22:54:07.120Z,97612.91
2022-11-21T22:56:34.853Z,97569.63
2022-11-21T22:59:02.674Z,97484.63
2022-11-21T23:01:30.492Z,97451.28
2022-11-21T23:03:58.676Z,97543.03
2022-11-21T23:06:28.239Z,97251.34
2022-11-21T23:08:56.652Z,97666.22
2022-11-21T23:11:26.077Z,97429.69
2022-11-21T23:13:54.067Z,97491.09
2022-11-21T23:16:22.321Z,97524.38
2022-11-21T23:18:50.296Z,97375.56
2022-11-21T23:21:18.171Z,97373.78
2022-11-21T23:23:47.302Z,97408.81
2022-11-21T23:26:15.085Z,97334.31
2022-11-21T23:28:42.787Z,97551.66
2022-11-21T23:31:10.829Z,97553.72
2022-11-21T23:33:38.564Z,97373.81
2022-11-21T23:36:06.535Z,97374.94
2022-11-21T23:38:34.257Z,97679.53
2022-11-21T23:41:03.299Z,97533.31
2022-11-21T23:43:31.082Z,97376.81
2022-11-21T23:45:58.824Z,97361.41
2022-11-21T23:48:26.560Z,97473.44
2022-11-21T23:50:54.356Z,97157.06
2022-11-21T23:53:22.315Z,97529.59
2022-11-21T23:55:50.557Z,97544.13
2022-11-21T23:58:19.799Z,97462.91
